Time;durP1;ratioP1;P1;durP2;ratioP2;P2;SDS_P1;SDS_P2;PMS_P1;PMS_P2;Temp;Humidity;BMP_temperature;BMP_pressure;BME280_temperature;BME280_humidity;BME280_pressure;Samples;Min_cycle;Max_cycle;Signal;HPM_P1;HPM_P2
2022/09/06 00:00:25;;;;;;;10.90;3.72;;;;;;;;;;4424561;32;20668;-85
2022/09/06 00:02:56;;;;;;;6.90;3.55;;;;;;;;;;4423972;32;20606;-84
2022/09/06 00:05:23;;;;;;;5.68;3.33;;;;;;;;;;4423074;32;20303;-84
2022/09/06 00:07:51;;;;;;;11.63;4.07;;;;;;;;;;4423046;32;20625;-84
2022/09/06 00:10:18;;;;;;;3.28;2.95;;;;;;;;;;4422720;32;20669;-85
2022/09/06 00:12:46;;;;;;;8.93;3.70;;;;;;;;;;4423069;32;20700;-85
2022/09/06 00:15:14;;;;;;;12.27;4.40;;;;;;;;;;4422867;32;20606;-85
2022/09/06 00:17:43;;;;;;;5.65;3.40;;;;;;;;;;4423249;32;20538;-85
2022/09/06 00:20:12;;;;;;;5.25;3.58;;;;;;;;;;4422700;32;20616;-87
2022/09/06 00:22:40;;;;;;;4.07;3.28;;;;;;;;;;4424102;32;20206;-87
2022/09/06 00:25:08;;;;;;;6.00;3.70;;;;;;;;;;4422794;32;20339;-87
2022/09/06 00:27:36;;;;;;;8.57;3.70;;;;;;;;;;4421575;32;20323;-85
2022/09/06 00:30:04;;;;;;;7.15;3.10;;;;;;;;;;4422439;32;20658;-85
2022/09/06 00:32:33;;;;;;;6.20;3.80;;;;;;;;;;4424044;32;20583;-83
2022/09/06 00:35:00;;;;;;;9.65;3.97;;;;;;;;;;4423280;32;20282;-88
2022/09/06 00:37:29;;;;;;;10.15;3.25;;;;;;;;;;4422267;32;20634;-84
2022/09/06 00:39:57;;;;;;;3.22;2.92;;;;;;;;;;4421077;32;20385;-85
2022/09/06 00:42:24;;;;;;;6.20;3.90;;;;;;;;;;4421290;32;20536;-86
2022/09/06 00:44:52;;;;;;;4.53;3.80;;;;;;;;;;4421083;32;20550;-84
2022/09/06 00:47:20;;;;;;;9.18;3.78;;;;;;;;;;4421421;32;20647;-84
2022/09/06 00:49:53;;;;;;;11.02;3.05;;;;;;;;;;4421490;32;20193;-82
2022/09/06 00:52:22;;;;;;;10.85;3.20;;;;;;;;;;4421312;32;20351;-84
2022/09/06 00:54:52;;;;;;;5.57;3.58;;;;;;;;;;4421200;32;20610;-84
2022/09/06 00:57:20;;;;;;;8.20;3.47;;;;;;;;;;4421598;32;20572;-85
2022/09/06 00:59:48;;;;;;;9.63;4.35;;;;;;;;;;4420751;32;20386;-84
2022/09/06 01:02:16;;;;;;;6.60;3.83;;;;;;;;;;4421472;32;20549;-85
2022/09/06 01:04:46;;;;;;;10.10;3.40;;;;;;;;;;4421372;32;20693;-87
2022/09/06 01:07:23;;;;;;;7.72;4.50;;;;;;;;;;4408297;32;20367;-88
2022/09/06 01:10:11;;;;;;;7.45;3.70;;;;;;;;;;4421891;32;20541;-82
2022/09/06 01:12:46;;;;;;;6.82;4.35;;;;;;;;;;4421618;32;20516;-87
2022/09/06 01:15:24;;;;;;;10.93;3.92;;;;;;;;;;4421450;32;20508;-85
2022/09/06 01:18:01;;;;;;;8.98;3.60;;;;;;;;;;4421163;32;20527;-84
2022/09/06 01:21:07;;;;;;;5.22;4.72;;;;;;;;;;4422455;32;20647;-84
2022/09/06 01:24:07;;;;;;;6.78;4.18;;;;;;;;;;4417129;32;20237;-84
2022/09/06 01:27:00;;;;;;;13.62;4.37;;;;;;;;;;4394563;32;20301;-84
2022/09/06 01:29:37;;;;;;;12.82;4.00;;;;;;;;;;4423610;32;20530;-86
2022/09/06 01:32:12;;;;;;;5.25;3.17;;;;;;;;;;4423728;32;20545;-87
2022/09/06 01:34:46;;;;;;;7.03;3.75;;;;;;;;;;4423509;32;20632;-86
2022/09/06 01:37:16;;;;;;;6.43;3.97;;;;;;;;;;4423641;32;20193;-86
2022/09/06 01:39:44;;;;;;;14.75;4.25;;;;;;;;;;4423275;32;20534;-86
2022/09/06 01:42:16;;;;;;;7.60;4.20;;;;;;;;;;4424885;32;20264;-86
2022/09/06 01:44:51;;;;;;;5.82;3.97;;;;;;;;;;4424460;32;20209;-87
2022/09/06 01:47:28;;;;;;;4.62;3.50;;;;;;;;;;4423934;32;20625;-85
2022/09/06 01:50:07;;;;;;;6.68;4.30;;;;;;;;;;4424271;32;20516;-86
2022/09/06 01:52:40;;;;;;;5.65;3.78;;;;;;;;;;4422898;32;20546;-86
2022/09/06 01:55:17;;;;;;;5.03;3.42;;;;;;;;;;4424390;32;20232;-86
2022/09/06 01:57:58;;;;;;;5.18;3.70;;;;;;;;;;4422837;32;20531;-86
2022/09/06 02:00:27;;;;;;;5.75;4.05;;;;;;;;;;4422038;32;20524;-86
2022/09/06 02:03:06;;;;;;;16.85;4.07;;;;;;;;;;4420830;32;20599;-86
2022/09/06 02:05:38;;;;;;;14.57;4.12;;;;;;;;;;4421923;32;20698;-86
2022/09/06 02:08:11;;;;;;;7.50;3.35;;;;;;;;;;4421132;32;20599;-85
2022/09/06 02:10:47;;;;;;;5.20;4.03;;;;;;;;;;4422212;32;20237;-85
2022/09/06 02:13:17;;;;;;;4.93;3.70;;;;;;;;;;4421502;32;20261;-85
2022/09/06 02:15:51;;;;;;;7.60;3.80;;;;;;;;;;4420115;32;20569;-84
2022/09/06 02:18:24;;;;;;;6.25;3.70;;;;;;;;;;4420417;32;20386;-84
2022/09/06 02:20:54;;;;;;;7.60;4.05;;;;;;;;;;4421122;32;20508;-84
2022/09/06 02:23:27;;;;;;;8.43;3.90;;;;;;;;;;4421407;32;20619;-85
2022/09/06 02:25:59;;;;;;;6.68;4.82;;;;;;;;;;4420925;32;20629;-85
2022/09/06 02:28:28;;;;;;;9.73;4.40;;;;;;;;;;4421114;32;20194;-86
2022/09/06 02:31:02;;;;;;;9.18;4.93;;;;;;;;;;4420958;32;20630;-86
2022/09/06 02:33:34;;;;;;;6.90;4.50;;;;;;;;;;4421187;32;20477;-86
2022/09/06 02:36:06;;;;;;;15.55;3.70;;;;;;;;;;4421372;32;20224;-85
2022/09/06 02:38:37;;;;;;;8.40;4.12;;;;;;;;;;4421396;32;20499;-84
2022/09/06 02:41:06;;;;;;;11.02;4.20;;;;;;;;;;4421789;32;20566;-85
2022/09/06 02:43:40;;;;;;;8.40;4.80;;;;;;;;;;4421695;32;20518;-86
2022/09/06 02:46:11;;;;;;;5.00;4.22;;;;;;;;;;4421813;32;20315;-90
2022/09/06 02:48:38;;;;;;;8.50;4.45;;;;;;;;;;4421292;32;20554;-84
2022/09/06 02:51:08;;;;;;;8.52;5.00;;;;;;;;;;4421526;32;20570;-86
2022/09/06 02:53:35;;;;;;;6.45;4.68;;;;;;;;;;4426128;32;20173;-86
2022/09/06 02:56:03;;;;;;;8.38;4.45;;;;;;;;;;4436057;32;20237;-85
2022/09/06 02:58:31;;;;;;;4.45;3.87;;;;;;;;;;4432054;32;20519;-85
2022/09/06 03:04:35;;;;;;;8.02;3.87;;;;;;;;;;4425183;32;20602;-96
2022/09/06 03:09:57;;;;;;;8.10;4.12;;;;;;;;;;4430423;32;20248;-95
2022/09/06 03:12:29;;;;;;;5.90;4.28;;;;;;;;;;4432956;32;20245;-96
2022/09/06 03:23:31;;;;;;;8.77;3.85;;;;;;;;;;4425633;32;20668;-96
2022/09/06 03:26:03;;;;;;;6.68;5.70;;;;;;;;;;4426237;32;20313;-96
2022/09/06 03:28:41;;;;;;;7.20;5.35;;;;;;;;;;4423363;32;20332;-96
2022/09/06 03:31:23;;;;;;;9.75;5.75;;;;;;;;;;4412773;32;20248;-96
2022/09/06 03:33:56;;;;;;;7.57;5.35;;;;;;;;;;4425977;32;20340;-96
2022/09/06 03:36:58;;;;;;;5.78;4.53;;;;;;;;;;4425214;32;20306;-96
2022/09/06 03:39:37;;;;;;;6.53;4.30;;;;;;;;;;4425924;32;20266;-96
2022/09/06 03:42:20;;;;;;;6.50;4.18;;;;;;;;;;4411707;32;20345;-96
2022/09/06 03:44:54;;;;;;;11.75;4.62;;;;;;;;;;4425355;32;20289;-96
2022/09/06 03:50:26;;;;;;;7.60;3.92;;;;;;;;;;4430138;32;20210;-96
2022/09/06 03:53:05;;;;;;;5.00;4.47;;;;;;;;;;4438090;32;20289;-96
2022/09/06 03:55:36;;;;;;;8.00;4.03;;;;;;;;;;4428656;32;20653;-96
2022/09/06 04:01:03;;;;;;;10.38;4.20;;;;;;;;;;4424615;32;20347;-96
2022/09/06 04:03:47;;;;;;;4.47;3.90;;;;;;;;;;4424454;32;20716;-96
2022/09/06 04:06:30;;;;;;;6.07;4.43;;;;;;;;;;4425088;32;20297;-96
2022/09/06 04:09:10;;;;;;;7.47;4.40;;;;;;;;;;4425436;32;20285;-96
2022/09/06 04:11:52;;;;;;;7.87;4.07;;;;;;;;;;4425704;32;20272;-96
2022/09/06 04:14:27;;;;;;;6.07;3.92;;;;;;;;;;4424939;32;20232;-96
2022/09/06 04:17:04;;;;;;;16.12;5.10;;;;;;;;;;4425472;32;20263;-96
2022/09/06 04:19:59;;;;;;;8.70;4.57;;;;;;;;;;4422966;32;20343;-96
2022/09/06 04:25:29;;;;;;;8.55;4.30;;;;;;;;;;4407864;32;20241;-96
2022/09/06 04:28:07;;;;;;;9.23;3.95;;;;;;;;;;4407744;32;20293;-96
2022/09/06 04:33:27;;;;;;;4.03;3.60;;;;;;;;;;4407508;32;20780;-96
2022/09/06 04:38:55;;;;;;;7.68;4.07;;;;;;;;;;4407052;32;20245;-96
2022/09/06 04:44:46;;;;;;;5.55;3.65;;;;;;;;;;4423950;32;20315;-96
2022/09/06 04:47:33;;;;;;;7.90;4.05;;;;;;;;;;4424672;32;20260;-96
2022/09/06 04:50:15;;;;;;;6.22;4.05;;;;;;;;;;4424175;32;20276;-96
2022/09/06 04:52:54;;;;;;;10.98;4.12;;;;;;;;;;4424699;32;20232;-96
2022/09/06 04:55:40;;;;;;;11.35;5.43;;;;;;;;;;4424908;32;20245;-96
2022/09/06 04:58:19;;;;;;;5.85;4.72;;;;;;;;;;4425010;32;20321;-96
2022/09/06 05:00:52;;;;;;;14.60;6.10;;;;;;;;;;4424007;32;20546;-96
2022/09/06 05:03:24;;;;;;;14.55;4.82;;;;;;;;;;4411184;32;20274;-96
2022/09/06 05:06:09;;;;;;;6.68;5.87;;;;;;;;;;4425128;32;20271;-96
2022/09/06 05:08:56;;;;;;;18.48;7.22;;;;;;;;;;4425028;32;20548;-96
2022/09/06 05:11:34;;;;;;;10.43;7.30;;;;;;;;;;4424996;32;20213;-96
2022/09/06 05:14:19;;;;;;;10.55;5.40;;;;;;;;;;4424351;32;20236;-96
2022/09/06 05:16:50;;;;;;;9.98;5.35;;;;;;;;;;4424690;32;20235;-96
2022/09/06 05:22:26;;;;;;;17.30;6.65;;;;;;;;;;4423509;32;20554;-96
2022/09/06 05:24:57;;;;;;;8.63;6.18;;;;;;;;;;4422906;32;20314;-96
2022/09/06 05:27:39;;;;;;;10.32;6.72;;;;;;;;;;4423917;32;20512;-96
2022/09/06 05:30:18;;;;;;;10.05;7.03;;;;;;;;;;4424711;32;20248;-96
2022/09/06 05:35:35;;;;;;;14.02;5.97;;;;;;;;;;4422627;32;20236;-96
2022/09/06 05:38:10;;;;;;;12.20;5.78;;;;;;;;;;4423563;32;20261;-96
2022/09/06 05:40:43;;;;;;;8.20;5.40;;;;;;;;;;4411418;32;20237;-96
2022/09/06 05:46:31;;;;;;;6.65;5.87;;;;;;;;;;4423591;32;20237;-96
2022/09/06 05:49:25;;;;;;;15.00;5.62;;;;;;;;;;4423160;32;20292;-96
2022/09/06 05:51:55;;;;;;;12.68;6.22;;;;;;;;;;4409420;32;20310;-96
2022/09/06 05:54:27;;;;;;;9.77;5.12;;;;;;;;;;4423351;32;20299;-96
2022/09/06 05:57:01;;;;;;;6.20;5.37;;;;;;;;;;4426416;32;20211;-96
2022/09/06 05:59:29;;;;;;;14.27;5.85;;;;;;;;;;4437178;32;20217;-94
2022/09/06 06:02:07;;;;;;;6.87;4.90;;;;;;;;;;4430784;32;20194;-96
2022/09/06 06:04:42;;;;;;;7.25;4.78;;;;;;;;;;4425260;32;20306;-96
2022/09/06 06:07:17;;;;;;;14.57;5.28;;;;;;;;;;4423870;32;20251;-96
2022/09/06 06:09:57;;;;;;;26.58;14.13;;;;;;;;;;4423119;32;20241;-95
2022/09/06 06:13:01;;;;;;;19.42;11.63;;;;;;;;;;4422600;32;20274;-95
2022/09/06 06:18:34;;;;;;;9.52;6.25;;;;;;;;;;4390157;32;20252;-96
2022/09/06 06:21:23;;;;;;;14.25;6.40;;;;;;;;;;4389683;32;20329;-96
2022/09/06 06:26:47;;;;;;;10.32;7.10;;;;;;;;;;4389898;32;20246;-95
2022/09/06 06:29:26;;;;;;;15.80;6.40;;;;;;;;;;4378159;32;20318;-96
2022/09/06 06:32:02;;;;;;;15.15;6.93;;;;;;;;;;4388965;32;20344;-96
2022/09/06 06:34:55;;;;;;;8.60;6.40;;;;;;;;;;4418994;32;20626;-96
2022/09/06 06:37:28;;;;;;;8.88;6.43;;;;;;;;;;4422662;32;20248;-96
2022/09/06 06:39:56;;;;;;;19.83;10.63;;;;;;;;;;4422365;32;20312;-96
2022/09/06 06:42:30;;;;;;;10.40;6.25;;;;;;;;;;4421839;32;20400;-96
2022/09/06 06:45:03;;;;;;;11.02;6.87;;;;;;;;;;4422371;32;20747;-96
2022/09/06 06:47:44;;;;;;;11.40;7.28;;;;;;;;;;4422390;32;20194;-96
2022/09/06 06:50:16;;;;;;;9.15;5.97;;;;;;;;;;4422191;32;20233;-96
2022/09/06 06:53:03;;;;;;;8.57;5.57;;;;;;;;;;4422304;32;20325;-96
2022/09/06 06:55:49;;;;;;;12.48;5.80;;;;;;;;;;4420196;32;20249;-96
2022/09/06 06:58:22;;;;;;;9.75;6.07;;;;;;;;;;4423321;32;20213;-96
2022/09/06 07:00:54;;;;;;;7.28;5.03;;;;;;;;;;4420396;32;20371;-95
2022/09/06 07:03:23;;;;;;;13.77;4.85;;;;;;;;;;4422549;32;20245;-96
2022/09/06 07:05:51;;;;;;;6.25;5.43;;;;;;;;;;4421892;32;20241;-96
2022/09/06 07:08:33;;;;;;;7.95;5.65;;;;;;;;;;4422320;32;20202;-96
2022/09/06 07:14:00;;;;;;;10.57;5.65;;;;;;;;;;4420949;32;20292;-96
2022/09/06 07:16:42;;;;;;;15.85;5.35;;;;;;;;;;4421525;32;20243;-96
2022/09/06 07:19:22;;;;;;;7.97;5.35;;;;;;;;;;4421904;32;20206;-96
2022/09/06 07:21:51;;;;;;;11.30;5.70;;;;;;;;;;4422034;32;20217;-96
2022/09/06 07:27:18;;;;;;;6.45;4.85;;;;;;;;;;4421054;32;20263;-96
2022/09/06 07:32:34;;;;;;;7.78;5.87;;;;;;;;;;4421810;32;20237;-96
2022/09/06 07:35:04;;;;;;;7.53;4.57;;;;;;;;;;4422677;32;20264;-96
2022/09/06 07:37:45;;;;;;;9.75;5.22;;;;;;;;;;4422082;32;20197;-95
2022/09/06 07:40:48;;;;;;;8.32;5.53;;;;;;;;;;4420853;32;20633;-96
2022/09/06 07:46:17;;;;;;;9.35;4.68;;;;;;;;;;4420141;32;20348;-96
2022/09/06 07:48:48;;;;;;;7.43;4.80;;;;;;;;;;4424063;32;20231;-96
2022/09/06 07:51:20;;;;;;;11.25;4.93;;;;;;;;;;4423906;32;20302;-96
2022/09/06 07:53:51;;;;;;;11.32;5.18;;;;;;;;;;4397462;32;20735;-95
2022/09/06 07:56:23;;;;;;;4.90;4.40;;;;;;;;;;4410557;32;20298;-95
2022/09/06 07:58:56;;;;;;;10.85;6.35;;;;;;;;;;4424092;32;20241;-96
2022/09/06 08:01:29;;;;;;;13.07;5.20;;;;;;;;;;4424189;32;20448;-96
2022/09/06 08:03:58;;;;;;;8.73;4.47;;;;;;;;;;4423588;32;20372;-95
2022/09/06 08:06:27;;;;;;;7.78;5.10;;;;;;;;;;4424773;32;20231;-95
2022/09/06 08:09:03;;;;;;;7.15;5.57;;;;;;;;;;4435126;32;20198;-95
2022/09/06 08:11:40;;;;;;;8.15;5.30;;;;;;;;;;4434987;32;20281;-96
2022/09/06 08:14:20;;;;;;;6.82;4.72;;;;;;;;;;4424552;32;20264;-96
2022/09/06 08:16:53;;;;;;;9.60;4.97;;;;;;;;;;4410418;32;20281;-96
2022/09/06 08:19:24;;;;;;;7.68;4.37;;;;;;;;;;4423987;32;20252;-96
2022/09/06 08:21:54;;;;;;;10.43;5.07;;;;;;;;;;4424016;32;20364;-96
2022/09/06 08:27:12;;;;;;;11.32;4.85;;;;;;;;;;4423699;32;20240;-96
2022/09/06 08:29:44;;;;;;;6.10;4.18;;;;;;;;;;4423681;32;20659;-96
2022/09/06 08:32:14;;;;;;;7.85;4.40;;;;;;;;;;4423570;32;20321;-96
2022/09/06 08:34:46;;;;;;;9.07;4.55;;;;;;;;;;4423561;32;20240;-96
2022/09/06 08:37:17;;;;;;;8.50;5.10;;;;;;;;;;4423623;32;20296;-96
2022/09/06 08:39:47;;;;;;;10.85;4.75;;;;;;;;;;4423607;32;20239;-96
2022/09/06 08:42:16;;;;;;;7.75;4.90;;;;;;;;;;4423510;32;20279;-96
2022/09/06 08:44:52;;;;;;;8.20;4.65;;;;;;;;;;4423642;32;20315;-96
2022/09/06 08:47:25;;;;;;;7.20;5.65;;;;;;;;;;4423390;32;20229;-96
2022/09/06 08:50:00;;;;;;;11.12;6.40;;;;;;;;;;4423440;32;20209;-96
2022/09/06 08:52:54;;;;;;;7.62;5.85;;;;;;;;;;4423130;32;20264;-96
2022/09/06 08:55:56;;;;;;;10.45;6.03;;;;;;;;;;4422902;32;20205;-95
2022/09/06 08:59:06;;;;;;;16.90;6.65;;;;;;;;;;4390711;32;20317;-96
2022/09/06 09:02:00;;;;;;;12.88;8.13;;;;;;;;;;4390407;32;20289;-96
2022/09/06 09:07:44;;;;;;;14.00;7.22;;;;;;;;;;4390147;32;20686;-96
2022/09/06 09:10:38;;;;;;;13.80;6.62;;;;;;;;;;4390746;32;20230;-96
2022/09/06 09:13:37;;;;;;;16.60;6.62;;;;;;;;;;4391153;32;20207;-96
2022/09/06 09:16:19;;;;;;;11.57;6.68;;;;;;;;;;4401202;32;20224;-96
2022/09/06 09:18:57;;;;;;;18.27;6.60;;;;;;;;;;4423574;32;20220;-96
2022/09/06 09:21:33;;;;;;;17.35;5.65;;;;;;;;;;4422950;32;20326;-96
2022/09/06 09:24:08;;;;;;;10.82;6.20;;;;;;;;;;4423113;32;20314;-96
2022/09/06 09:26:50;;;;;;;13.05;6.05;;;;;;;;;;4423016;32;20246;-96
2022/09/06 09:29:20;;;;;;;18.90;7.03;;;;;;;;;;4422938;32;20239;-96
2022/09/06 09:32:03;;;;;;;13.50;6.15;;;;;;;;;;4422854;32;20639;-96
2022/09/06 09:34:35;;;;;;;9.75;6.43;;;;;;;;;;4422996;32;20229;-96
2022/09/06 09:39:59;;;;;;;14.27;6.30;;;;;;;;;;4422202;32;20346;-96
2022/09/06 09:45:28;;;;;;;13.25;7.32;;;;;;;;;;4422933;32;20296;-93
2022/09/06 09:48:19;;;;;;;13.57;7.65;;;;;;;;;;4422225;32;20257;-96
2022/09/06 09:50:51;;;;;;;20.62;7.00;;;;;;;;;;4422980;32;20247;-96
2022/09/06 09:53:22;;;;;;;7.00;5.00;;;;;;;;;;4409495;32;20237;-96
2022/09/06 09:55:56;;;;;;;8.32;5.97;;;;;;;;;;4422272;32;20422;-94
2022/09/06 10:01:31;;;;;;;15.52;6.30;;;;;;;;;;4422113;32;20581;-96
2022/09/06 10:04:11;;;;;;;7.65;6.87;;;;;;;;;;4422149;32;20274;-96
2022/09/06 10:06:45;;;;;;;23.65;7.95;;;;;;;;;;4422655;32;20251;-96
2022/09/06 10:09:25;;;;;;;18.45;8.20;;;;;;;;;;4422535;32;20323;-96
2022/09/06 10:14:47;;;;;;;8.15;6.03;;;;;;;;;;4425184;32;20274;-96
2022/09/06 10:17:32;;;;;;;14.52;5.57;;;;;;;;;;4437854;32;20252;-95
2022/09/06 10:20:11;;;;;;;11.82;5.37;;;;;;;;;;4428816;32;20251;-96
2022/09/06 10:26:04;;;;;;;10.98;5.93;;;;;;;;;;4421562;32;20313;-96
2022/09/06 10:28:51;;;;;;;10.50;5.80;;;;;;;;;;4410153;32;20569;-96
2022/09/06 10:31:50;;;;;;;9.07;6.40;;;;;;;;;;4420714;32;20260;-96
2022/09/06 10:34:46;;;;;;;9.25;4.18;;;;;;;;;;4422590;32;20266;-96
2022/09/06 10:37:37;;;;;;;7.37;6.68;;;;;;;;;;4415179;32;20228;-96
2022/09/06 10:40:32;;;;;;;7.07;5.57;;;;;;;;;;4421992;32;20650;-96
2022/09/06 10:43:02;;;;;;;5.20;4.43;;;;;;;;;;4422396;32;20618;-96
2022/09/06 10:46:03;;;;;;;5.53;4.12;;;;;;;;;;4408420;32;20240;-96
2022/09/06 10:48:41;;;;;;;6.35;4.37;;;;;;;;;;4422371;32;20235;-96
2022/09/06 10:54:30;;;;;;;9.18;4.75;;;;;;;;;;4422092;32;20252;-96
2022/09/06 10:57:20;;;;;;;13.30;4.97;;;;;;;;;;4420444;32;20286;-96
2022/09/06 10:59:56;;;;;;;8.52;4.90;;;;;;;;;;4421679;32;20662;-96
2022/09/06 11:02:40;;;;;;;4.45;4.05;;;;;;;;;;4422415;32;20236;-96
2022/09/06 11:05:31;;;;;;;15.90;4.25;;;;;;;;;;4422547;32;20209;-96
2022/09/06 11:08:09;;;;;;;3.78;3.47;;;;;;;;;;4423414;32;20675;-96
2022/09/06 11:10:44;;;;;;;5.82;3.67;;;;;;;;;;4424315;32;20262;-96
2022/09/06 11:13:19;;;;;;;6.57;3.47;;;;;;;;;;4424766;32;20258;-96
2022/09/06 11:15:55;;;;;;;8.10;3.97;;;;;;;;;;4410851;32;20323;-96
2022/09/06 11:18:40;;;;;;;5.97;4.35;;;;;;;;;;4423697;32;20276;-96
2022/09/06 11:25:07;;;;;;;5.60;4.47;;;;;;;;;;4364600;32;20285;-96
2022/09/06 11:30:55;;;;;;;6.62;4.45;;;;;;;;;;4362885;32;20250;-96
2022/09/06 11:33:38;;;;;;;3.15;2.85;;;;;;;;;;4362353;32;20557;-96
2022/09/06 11:36:33;;;;;;;5.95;3.35;;;;;;;;;;4425932;32;20566;-96
2022/09/06 11:39:15;;;;;;;8.32;5.37;;;;;;;;;;4426394;32;20217;-96
2022/09/06 11:41:58;;;;;;;5.80;3.10;;;;;;;;;;4425699;32;20239;-96
2022/09/06 11:45:16;;;;;;;6.15;3.65;;;;;;;;;;4425786;32;20315;-96
2022/09/06 11:47:46;;;;;;;4.10;2.75;;;;;;;;;;4425331;32;20249;-96
2022/09/06 11:51:14;;;;;;;5.78;3.17;;;;;;;;;;4425429;32;20284;-96
2022/09/06 11:57:03;;;;;;;5.35;3.20;;;;;;;;;;4426102;32;20353;-96
2022/09/06 12:00:00;;;;;;;3.12;2.45;;;;;;;;;;4424513;32;20252;-96
2022/09/06 12:02:39;;;;;;;3.47;2.58;;;;;;;;;;4424485;32;20225;-96
2022/09/06 12:08:41;;;;;;;7.68;5.68;;;;;;;;;;4424353;32;20249;-96
2022/09/06 12:11:32;;;;;;;3.28;2.85;;;;;;;;;;4424491;32;20311;-96
2022/09/06 12:14:27;;;;;;;4.57;3.35;;;;;;;;;;4423965;32;20225;-96
2022/09/06 12:21:10;;;;;;;10.77;3.28;;;;;;;;;;4437428;32;20249;-94
2022/09/06 12:26:50;;;;;;;5.50;4.18;;;;;;;;;;4423787;32;20249;-96
2022/09/06 12:29:36;;;;;;;4.57;2.72;;;;;;;;;;4423981;32;20227;-96
2022/09/06 12:32:09;;;;;;;5.72;3.33;;;;;;;;;;4423490;32;20293;-96
2022/09/06 12:34:39;;;;;;;5.28;3.30;;;;;;;;;;4422940;32;20425;-96
2022/09/06 12:37:09;;;;;;;4.05;3.42;;;;;;;;;;4423564;32;20613;-96
2022/09/06 12:39:56;;;;;;;8.30;3.20;;;;;;;;;;4409565;32;20274;-96
2022/09/06 12:42:26;;;;;;;7.60;3.22;;;;;;;;;;4423714;32;20235;-96
2022/09/06 12:45:00;;;;;;;5.28;3.25;;;;;;;;;;4423541;32;20239;-96
2022/09/06 12:47:35;;;;;;;8.23;2.97;;;;;;;;;;4423601;32;20657;-96
2022/09/06 12:50:19;;;;;;;2.90;2.70;;;;;;;;;;4423856;32;20633;-96
2022/09/06 12:52:58;;;;;;;5.35;3.25;;;;;;;;;;4423883;32;20633;-96
2022/09/06 12:58:16;;;;;;;4.47;3.30;;;;;;;;;;4423674;32;20302;-96
2022/09/06 13:00:51;;;;;;;4.15;3.75;;;;;;;;;;4423437;32;20256;-96
2022/09/06 13:03:49;;;;;;;3.90;3.40;;;;;;;;;;4423293;32;20351;-96
2022/09/06 13:06:23;;;;;;;7.22;3.35;;;;;;;;;;4423719;32;20320;-95
2022/09/06 13:11:54;;;;;;;5.43;3.78;;;;;;;;;;4422793;32;20256;-96
2022/09/06 13:14:26;;;;;;;6.15;3.53;;;;;;;;;;4423216;32;20237;-96
2022/09/06 13:16:56;;;;;;;4.05;3.30;;;;;;;;;;4424278;32;20312;-96
2022/09/06 13:19:38;;;;;;;4.85;3.15;;;;;;;;;;4423030;32;20305;-96
2022/09/06 13:22:14;;;;;;;5.07;3.67;;;;;;;;;;4422694;32;20646;-96
2022/09/06 13:24:52;;;;;;;3.85;3.28;;;;;;;;;;4423233;32;20628;-96
2022/09/06 13:27:35;;;;;;;3.67;2.70;;;;;;;;;;4423055;32;20205;-96
2022/09/06 13:30:10;;;;;;;4.25;3.67;;;;;;;;;;4423106;32;20249;-96
2022/09/06 13:32:50;;;;;;;2.75;2.28;;;;;;;;;;4423057;32;20728;-96
2022/09/06 13:35:33;;;;;;;4.20;2.85;;;;;;;;;;4423127;32;20227;-96
2022/09/06 13:38:33;;;;;;;2.60;2.40;;;;;;;;;;4422364;32;20700;-96
2022/09/06 13:41:28;;;;;;;4.50;3.08;;;;;;;;;;4422804;32;20600;-96
2022/09/06 13:44:23;;;;;;;4.60;2.75;;;;;;;;;;4422554;32;20258;-96
2022/09/06 13:46:56;;;;;;;3.67;2.67;;;;;;;;;;4422507;32;20282;-96
2022/09/06 13:49:30;;;;;;;4.00;1.98;;;;;;;;;;4422807;32;20290;-96
2022/09/06 13:52:02;;;;;;;3.10;2.65;;;;;;;;;;4422457;32;20224;-96
2022/09/06 13:54:38;;;;;;;3.12;2.05;;;;;;;;;;4422433;32;20582;-96
2022/09/06 13:57:08;;;;;;;4.50;3.30;;;;;;;;;;4422188;32;20246;-95
2022/09/06 13:59:48;;;;;;;4.68;3.10;;;;;;;;;;4422257;32;20237;-96
2022/09/06 14:02:31;;;;;;;4.30;3.40;;;;;;;;;;4423013;32;20215;-96
2022/09/06 14:08:06;;;;;;;11.85;7.65;;;;;;;;;;4422670;32;20237;-96
2022/09/06 14:10:36;;;;;;;4.95;3.83;;;;;;;;;;4422315;32;20247;-96
2022/09/06 14:13:10;;;;;;;6.47;4.03;;;;;;;;;;4408406;32;20261;-96
2022/09/06 14:18:34;;;;;;;2.40;2.20;;;;;;;;;;4422819;32;20742;-96
2022/09/06 14:21:08;;;;;;;3.45;3.08;;;;;;;;;;4425355;32;20349;-96
2022/09/06 14:23:49;;;;;;;3.33;2.90;;;;;;;;;;4434718;32;20267;-96
2022/09/06 14:26:22;;;;;;;3.15;2.70;;;;;;;;;;4424156;32;20281;-95
2022/09/06 14:28:53;;;;;;;8.30;3.37;;;;;;;;;;4422320;32;20238;-96
2022/09/06 14:34:08;;;;;;;5.00;3.08;;;;;;;;;;4421517;32;20294;-96
2022/09/06 14:36:37;;;;;;;3.33;2.12;;;;;;;;;;4421411;32;20225;-96
2022/09/06 14:39:09;;;;;;;4.53;3.47;;;;;;;;;;4421704;32;20255;-96
2022/09/06 14:41:37;;;;;;;3.83;3.20;;;;;;;;;;4422739;32;20265;-96
2022/09/06 14:44:19;;;;;;;5.30;3.53;;;;;;;;;;4422138;32;20217;-96
2022/09/06 14:46:54;;;;;;;3.33;3.00;;;;;;;;;;4421584;32;20634;-96
2022/09/06 14:52:09;;;;;;;5.53;2.80;;;;;;;;;;4421966;32;20649;-96
2022/09/06 14:54:36;;;;;;;4.68;4.10;;;;;;;;;;4422172;32;20398;-94
2022/09/06 14:57:06;;;;;;;7.30;3.40;;;;;;;;;;4425311;32;20623;-95
2022/09/06 14:59:35;;;;;;;6.53;5.07;;;;;;;;;;4413294;32;20375;-96
2022/09/06 15:02:14;;;;;;;5.37;2.35;;;;;;;;;;4426977;32;20705;-96
2022/09/06 15:04:47;;;;;;;8.13;6.43;;;;;;;;;;4426584;32;20243;-96
2022/09/06 15:07:17;;;;;;;8.48;4.87;;;;;;;;;;4427209;32;20612;-96
2022/09/06 15:09:49;;;;;;;9.43;5.22;;;;;;;;;;4427708;32;20216;-95
2022/09/06 15:12:24;;;;;;;11.15;3.22;;;;;;;;;;4427491;32;20745;-95
2022/09/06 15:14:54;;;;;;;7.05;5.07;;;;;;;;;;4426590;32;20233;-96
2022/09/06 15:17:33;;;;;;;22.90;18.37;;;;;;;;;;4427404;32;20216;-95
2022/09/06 15:20:11;;;;;;;18.73;11.00;;;;;;;;;;4426827;32;20225;-95
2022/09/06 15:22:41;;;;;;;13.10;7.18;;;;;;;;;;4413617;32;20307;-96
2022/09/06 15:25:12;;;;;;;10.27;4.18;;;;;;;;;;4426847;32;20240;-96
2022/09/06 15:27:42;;;;;;;5.62;4.32;;;;;;;;;;4426973;32;20213;-96
2022/09/06 15:30:22;;;;;;;4.22;3.67;;;;;;;;;;4426177;32;20275;-96
2022/09/06 15:32:59;;;;;;;17.90;11.35;;;;;;;;;;4413192;32;20371;-95
2022/09/06 15:35:27;;;;;;;12.20;8.38;;;;;;;;;;4427034;32;20236;-96
2022/09/06 15:37:58;;;;;;;8.43;6.00;;;;;;;;;;4426274;32;20236;-96
2022/09/06 15:40:26;;;;;;;21.27;12.15;;;;;;;;;;4426259;32;20248;-96
2022/09/06 15:45:48;;;;;;;21.50;11.50;;;;;;;;;;4425353;32;20728;-96
2022/09/06 15:48:18;;;;;;;11.02;7.45;;;;;;;;;;4426605;32;20213;-96
2022/09/06 15:50:45;;;;;;;12.30;6.72;;;;;;;;;;4426509;32;20652;-96
2022/09/06 15:53:26;;;;;;;15.35;9.80;;;;;;;;;;4426022;32;20632;-96
2022/09/06 15:56:00;;;;;;;22.40;10.23;;;;;;;;;;4426334;32;20295;-96
2022/09/06 15:58:32;;;;;;;7.00;6.05;;;;;;;;;;4426662;32;20275;-96
2022/09/06 16:01:01;;;;;;;13.75;10.27;;;;;;;;;;4426538;32;20305;-96
2022/09/06 16:03:38;;;;;;;14.48;7.20;;;;;;;;;;4426689;32;20697;-96
2022/09/06 16:06:13;;;;;;;5.12;4.10;;;;;;;;;;4426155;32;20773;-96
2022/09/06 16:08:42;;;;;;;5.53;3.62;;;;;;;;;;4424091;32;20232;-96
2022/09/06 16:11:11;;;;;;;7.20;3.05;;;;;;;;;;4409826;32;20253;-96
2022/09/06 16:13:40;;;;;;;4.22;3.33;;;;;;;;;;4423619;32;20245;-96
2022/09/06 16:16:09;;;;;;;4.82;3.62;;;;;;;;;;4409952;32;20308;-96
2022/09/06 16:18:40;;;;;;;4.37;3.22;;;;;;;;;;4423214;32;20316;-96
2022/09/06 16:21:09;;;;;;;9.38;3.70;;;;;;;;;;4424777;32;20318;-96
2022/09/06 16:23:43;;;;;;;6.15;3.35;;;;;;;;;;4424780;32;20286;-94
2022/09/06 16:26:10;;;;;;;4.18;3.30;;;;;;;;;;4429664;32;20289;-96
2022/09/06 16:28:45;;;;;;;5.57;3.75;;;;;;;;;;4423790;32;20282;-96
2022/09/06 16:31:12;;;;;;;8.63;4.68;;;;;;;;;;4410817;32;20244;-95
2022/09/06 16:33:49;;;;;;;6.60;4.47;;;;;;;;;;4423780;32;20263;-95
2022/09/06 16:36:21;;;;;;;7.37;3.70;;;;;;;;;;4410858;32;20236;-96
2022/09/06 16:38:53;;;;;;;3.72;3.37;;;;;;;;;;4410200;32;20299;-94
2022/09/06 16:41:37;;;;;;;6.85;3.60;;;;;;;;;;4424820;32;20610;-96
2022/09/06 16:44:14;;;;;;;13.07;4.30;;;;;;;;;;4424879;32;20267;-96
2022/09/06 16:46:55;;;;;;;5.22;3.83;;;;;;;;;;4425058;32;20648;-96
2022/09/06 16:50:01;;;;;;;10.07;4.07;;;;;;;;;;4424163;32;20204;-96
2022/09/06 16:52:53;;;;;;;10.25;5.35;;;;;;;;;;4424524;32;20281;-96
2022/09/06 16:55:37;;;;;;;9.48;5.82;;;;;;;;;;4424221;32;20635;-96
2022/09/06 16:58:08;;;;;;;10.48;6.37;;;;;;;;;;4424068;32;20302;-96
2022/09/06 17:00:44;;;;;;;10.23;6.70;;;;;;;;;;4424829;32;20239;-96
2022/09/06 17:03:13;;;;;;;14.80;5.30;;;;;;;;;;4424437;32;20643;-96
2022/09/06 17:05:48;;;;;;;14.98;6.03;;;;;;;;;;4424499;32;20241;-96
2022/09/06 17:08:21;;;;;;;12.02;6.40;;;;;;;;;;4423926;32;20632;-96
2022/09/06 17:10:49;;;;;;;12.10;6.18;;;;;;;;;;4423613;32;20300;-96
2022/09/06 17:13:18;;;;;;;8.05;5.68;;;;;;;;;;4409334;32;20257;-96
2022/09/06 17:18:38;;;;;;;10.68;6.53;;;;;;;;;;4423127;32;20237;-96
2022/09/06 17:21:09;;;;;;;14.07;6.55;;;;;;;;;;4421796;32;20657;-96
2022/09/06 17:23:42;;;;;;;13.10;7.22;;;;;;;;;;4423354;32;20225;-96
2022/09/06 17:26:14;;;;;;;11.07;6.97;;;;;;;;;;4409422;32;20241;-96
2022/09/06 17:28:47;;;;;;;15.98;7.07;;;;;;;;;;4410137;32;20216;-96
2022/09/06 17:31:16;;;;;;;9.52;6.65;;;;;;;;;;4423032;32;20286;-94
2022/09/06 17:33:45;;;;;;;9.25;5.97;;;;;;;;;;4422873;32;20245;-95
2022/09/06 17:36:15;;;;;;;6.03;4.95;;;;;;;;;;4422813;32;20228;-95
2022/09/06 17:38:46;;;;;;;15.10;5.28;;;;;;;;;;4422667;32;20252;-96